Latest Weather Observations for Telfer

IDW60801

Issued at 12:04 pm WST Wednesday 24 May 2017 (issued every 30 minutes, with the page automatically refreshed every 10 minutes)

About weather observations | Map of weather stations | Latest weather observations for WA | Other Formats
Station Details ID: 013030 Name: TELFER AERO Lat: -21.71 Lon: 122.23 Height: 291.9 m
Data from the previous 72 hours. | See also: Recent months at Telfer
Date/Time
WST
Temp
°C
App
Temp
°C
Dew
Point
°C
Rel
Hum
%
Delta-T
°C
Wind Press
QNH
hPa
Press
MSL
hPa
Rain since
9am
mm
Dir  Spd
km/h
Gust
km/h
Spd
kts
Gust
kts
24/12:00pm 28.0 23.8 8.3 29 10.8 ESE 20 24 11 13 1016.7 1015.5 -
24/11:30am 27.0 21.9 7.5 29 10.5 SE 24 32 13 17 1017.1 1015.9 0.0
24/11:00am 26.4 21.7 7.9 31 10.0 SE 22 30 12 16 1017.6 1016.4 0.0
24/10:30am 25.2 20.0 7.3 32 9.6 ESE 24 30 13 16 1018.1 1016.9 0.0
24/10:00am 23.9 17.8 6.7 33 9.0 SE 28 33 15 18 1018.6 1017.4 0.0
24/09:30am 22.6 16.5 6.4 35 8.4 SE 28 33 15 18 1018.9 1017.7 0.0
24/09:00am 22.2 16.4 6.4 36 8.1 SE 26 33 14 18 1019.1 1017.9 0.0
24/08:30am 20.7 14.5 6.3 39 7.3 SE 28 35 15 19 1019.1 1017.9 0.0
24/08:00am 19.4 12.8 6.2 42 6.6 SE 30 37 16 20 1019.0 1017.8 0.0
24/07:30am 17.5 12.4 6.1 47 5.7 SSE 22 30 12 16 1018.9 1017.7 0.0
24/07:00am 16.3 11.6 6.2 51 5.0 SE 20 26 11 14 1018.7 1017.5 0.0
24/06:30am 15.9 11.3 5.8 51 4.9 SE 19 24 10 13 1018.5 1017.3 0.0
24/06:00am 16.2 11.4 5.8 50 5.1 SE 20 24 11 13 1018.3 1017.1 0.0
24/05:30am 16.7 11.6 6.2 50 5.2 SSE 22 28 12 15 1017.8 1016.6 0.0
24/05:00am 16.7 11.6 6.2 50 5.2 SSE 22 28 12 15 1017.6 1016.4 0.0
24/04:30am 17.1 11.7 6.3 49 5.4 SSE 24 32 13 17 1017.5 1016.3 0.0
24/04:00am 16.9 12.3 6.4 50 5.2 SSE 20 28 11 15 1017.4 1016.2 0.0
24/03:30am 17.4 12.8 6.6 49 5.4 SE 20 26 11 14 1017.5 1016.3 0.0
24/03:00am 17.9 12.6 6.7 48 5.6 SSE 24 28 13 15 1017.6 1016.4 0.0
24/02:30am 18.0 13.1 6.8 48 5.7 SE 22 28 12 15 1017.6 1016.4 0.0
24/02:00am 18.5 13.2 7.0 47 5.8 SSE 24 32 13 17 1017.6 1016.4 0.0
24/01:30am 19.3 13.7 7.1 45 6.3 SSE 26 33 14 18 1017.7 1016.5 0.0
24/01:00am 19.2 13.9 7.0 45 6.2 SSE 24 30 13 16 1017.9 1016.7 0.0
24/12:30am 19.4 14.6 7.2 45 6.3 SSE 22 28 12 15 1018.0 1016.8 0.0
24/12:00am 19.6 14.8 7.4 45 6.3 SE 22 26 12 14 1018.2 1017.0 0.0
 
Date/Time
WST
Temp
°C
App
Temp
°C
Dew
Point
°C
Rel
Hum
%
Delta-T
°C
Wind Press
QNH
hPa
Press
MSL
hPa
Rain since
9am
mm
Dir  Spd
km/h
Gust
km/h
Spd
kts
Gust
kts
23/11:30pm 20.2 15.1 7.6 44 6.6 SE 24 28 13 15 1018.2 1017.0 0.0
23/11:00pm 20.4 16.1 7.7 44 6.6 SE 20 24 11 13 1018.3 1017.1 0.0
23/10:30pm 20.5 16.3 7.5 43 6.8 ESE 19 24 10 13 1018.4 1017.2 0.0
23/10:00pm 21.5 17.2 7.7 41 7.2 SE 20 28 11 15 1018.3 1017.1 0.0
23/09:30pm 21.6 17.9 7.8 41 7.3 ESE 17 22 9 12 1018.3 1017.1 0.0
23/09:00pm 21.7 18.0 7.9 41 7.3 ESE 17 20 9 11 1018.3 1017.1 0.0
23/08:30pm 21.6 18.2 7.8 41 7.3 ESE 15 19 8 10 1018.2 1017.0 0.0
23/08:00pm 21.7 18.7 7.9 41 7.3 ESE 13 17 7 9 1018.0 1016.8 0.0
23/07:30pm 21.8 18.9 8.0 41 7.3 ESE 13 15 7 8 1017.8 1016.6 0.0
23/07:00pm 21.9 19.0 8.1 41 7.3 ESE 13 15 7 8 1017.6 1016.4 0.0
23/06:30pm 22.7 19.7 7.7 38 7.9 SE 13 15 7 8 1017.2 1016.0 0.0
23/06:00pm 23.6 20.6 7.7 36 8.5 SE 13 15 7 8 1017.0 1015.7 0.0
23/05:30pm 25.0 22.0 7.6 33 9.3 SE 13 17 7 9 1016.8 1015.5 0.0
23/05:00pm 26.5 22.8 8.0 31 10.1 ESE 17 22 9 12 1016.3 1015.1 0.0
23/04:30pm 27.5 23.3 8.4 30 10.5 SE 20 28 11 15 1016.1 1014.9 0.0
23/04:00pm 28.0 23.4 8.3 29 10.8 ESE 22 30 12 16 1016.0 1014.8 0.0
23/03:30pm 28.4 23.8 8.1 28 11.2 SE 22 30 12 16 1015.9 1014.7 0.0
23/03:00pm 28.0 22.9 7.8 28 11.0 ESE 24 32 13 17 1016.0 1014.8 0.0
23/02:30pm 28.2 23.7 8.5 29 10.9 ESE 22 30 12 16 1016.0 1014.8 0.0
23/02:00pm 27.9 22.2 8.2 29 10.8 SE 28 39 15 21 1016.2 1015.0 0.0
23/01:30pm 27.3 21.8 7.7 29 10.7 ESE 26 39 14 21 1016.4 1015.2 0.0
23/01:00pm 27.3 21.6 8.2 30 10.5 ESE 28 35 15 19 1016.9 1015.6 0.0
23/12:30pm 26.1 19.6 8.1 32 9.8 ESE 32 39 17 21 1017.4 1016.2 0.0
23/12:00pm 26.3 20.1 7.8 31 10.0 SE 30 39 16 21 1017.9 1016.7 0.0
23/11:30am 25.5 19.6 7.6 32 9.6 ESE 28 39 15 21 1018.4 1017.2 0.0
23/11:00am 24.9 18.6 7.5 33 9.3 ESE 30 39 16 21 1018.9 1017.7 0.0
23/10:30am 24.2 17.5 8.2 36 8.6 SE 33 41 18 22 1019.4 1018.2 0.0
23/10:00am 22.9 15.6 7.4 37 8.2 SE 35 43 19 23 1019.9 1018.7 0.0
23/09:30am 21.9 14.6 7.3 39 7.6 SE 35 43 19 23 1019.9 1018.7 0.0
23/09:00am 21.0 14.4 7.6 42 7.0 SE 32 44 17 24 1020.0 1018.9 0.0
23/08:30am 19.6 12.0 7.7 46 6.2 SE 37 44 20 24 1020.0 1018.9 0.0
23/08:00am 18.3 11.4 7.4 49 5.6 SE 33 44 18 24 1019.7 1018.5 0.0
23/07:30am 17.4 10.7 7.5 52 5.1 SE 32 41 17 22 1019.5 1018.3 0.0
23/07:00am 16.3 10.4 7.3 55 4.5 SE 28 33 15 18 1019.2 1018.0 0.0
23/06:30am 16.0 10.0 7.2 56 4.4 SE 28 35 15 19 1018.9 1017.7 0.0
23/06:00am 15.8 10.6 7.3 57 4.3 SE 24 32 13 17 1018.6 1017.4 0.0
23/05:30am 15.9 10.7 7.1 56 4.4 SE 24 32 13 17 1018.2 1017.0 0.0
23/05:00am 15.9 10.7 7.1 56 4.4 SE 24 30 13 16 1018.0 1016.8 0.0
23/04:30am 16.2 10.5 6.9 54 4.7 SE 26 32 14 17 1017.7 1016.5 0.0
23/04:00am 16.4 10.7 6.8 53 4.8 SE 26 32 14 17 1017.5 1016.3 0.0
23/03:30am 16.4 11.5 6.8 53 4.8 SE 22 28 12 15 1017.3 1016.1 0.0
23/03:00am 16.8 11.5 6.6 51 5.1 SE 24 30 13 16 1017.1 1015.9 0.0
23/02:30am 17.4 12.1 6.6 49 5.4 SE 24 30 13 16 1017.2 1016.0 0.0
23/02:00am 17.3 12.3 6.5 49 5.4 SE 22 30 12 16 1017.2 1016.0 0.0
23/01:30am 17.7 13.1 6.3 47 5.7 SE 20 26 11 14 1017.1 1015.9 0.0
23/01:00am 18.3 13.6 6.2 45 6.1 SE 20 28 11 15 1017.2 1016.0 0.0
23/12:30am 19.3 14.7 6.4 43 6.5 SE 20 28 11 15 1017.2 1016.0 0.0
23/12:00am 19.9 15.3 6.3 41 6.9 SE 20 28 11 15 1017.4 1016.2 0.0
 
Date/Time
WST
Temp
°C
App
Temp
°C
Dew
Point
°C
Rel
Hum
%
Delta-T
°C
Wind Press
QNH
hPa
Press
MSL
hPa
Rain since
9am
mm
Dir  Spd
km/h
Gust
km/h
Spd
kts
Gust
kts
22/11:30pm 19.7 15.6 6.4 42 6.8 SSE 17 22 9 12 1017.4 1016.2 0.0
22/11:00pm 19.7 15.6 6.1 41 6.9 SE 17 20 9 11 1017.4 1016.2 0.0
22/10:30pm 20.6 16.2 6.5 40 7.2 SSE 19 22 10 12 1017.3 1016.1 0.0
22/10:00pm 21.5 16.9 6.6 38 7.7 SSE 20 24 11 13 1017.4 1016.2 0.0
22/09:30pm 22.1 16.7 6.3 36 8.1 S 24 30 13 16 1017.2 1016.0 0.0
22/09:00pm 23.0 18.0 6.3 34 8.6 S 22 30 12 16 1017.1 1015.9 0.0
22/08:30pm 23.5 18.9 6.3 33 8.9 S 20 26 11 14 1017.0 1015.7 0.0
22/08:00pm 23.7 19.6 6.0 32 9.1 S 17 20 9 11 1016.6 1015.4 0.0
22/07:30pm 23.0 20.1 6.3 34 8.6 S 11 15 6 8 1016.4 1015.2 0.0
22/07:00pm 23.4 20.0 5.8 32 9.0 SSE 13 13 7 7 1016.0 1014.8 0.0
22/06:30pm 23.2 20.1 5.6 32 9.0 SSE 11 13 6 7 1015.6 1014.4 0.0
22/06:00pm 23.5 21.2 5.9 32 9.1 SE 7 9 4 5 1015.3 1014.1 0.0
22/05:30pm 25.0 22.4 6.2 30 9.8 SE 9 11 5 6 1015.1 1013.9 0.0
22/05:00pm 26.7 23.6 5.6 26 11.0 ESE 11 15 6 8 1014.8 1013.6 0.0
22/04:30pm 27.9 24.5 6.1 25 11.6 ESE 13 17 7 9 1014.6 1013.4 0.0
22/04:00pm 28.3 24.5 5.8 24 11.9 SE 15 22 8 12 1014.5 1013.3 0.0
22/03:30pm 28.5 25.1 6.0 24 12.0 SE 13 22 7 12 1014.5 1013.3 0.0
22/03:00pm 28.3 25.0 6.4 25 11.7 SSE 13 28 7 15 1014.5 1013.3 0.0
22/02:30pm 28.4 24.7 6.5 25 11.7 SE 15 22 8 12 1014.6 1013.4 0.0
22/02:00pm 28.5 24.1 6.6 25 11.8 SSE 19 24 10 13 1014.8 1013.6 0.0
22/01:30pm 28.8 23.9 6.8 25 11.9 SSE 22 30 12 16 1014.9 1013.7 0.0
22/01:00pm 28.0 23.2 7.3 27 11.2 SE 22 30 12 16 1015.2 1014.0 0.0
22/12:30pm 27.7 22.3 6.5 26 11.3 SE 24 33 13 18 1015.7 1014.5 0.0
22/12:00pm 26.8 21.1 6.8 28 10.7 SE 26 39 14 21 1016.1 1014.9 0.0
22/11:30am 26.3 20.6 6.9 29 10.3 SE 26 35 14 19 1016.4 1015.2 0.0
22/11:00am 26.2 20.1 6.8 29 10.3 SE 28 35 15 19 1017.0 1015.7 0.0
22/10:30am 25.1 18.2 6.3 30 9.9 SE 32 39 17 21 1017.4 1016.2 0.0
22/10:00am 24.4 17.3 6.2 31 9.5 SE 33 43 18 23 1017.7 1016.5 0.0
22/09:30am 24.1 16.6 6.4 32 9.2 SE 35 44 19 24 1017.8 1016.6 0.0
22/09:00am 23.0 15.0 5.9 33 8.8 SE 37 50 20 27 1017.7 1016.5 0.0
22/08:30am 21.6 13.9 5.5 35 8.1 SSE 35 44 19 24 1017.5 1016.3 0.0
22/08:00am 21.1 14.4 5.5 36 7.8 SSE 30 43 16 23 1016.9 1015.6 0.0
22/07:30am 20.3 13.5 5.1 37 7.6 SSE 30 37 16 20 1016.3 1015.1 0.0
22/07:00am 19.6 13.1 4.5 37 7.4 SSE 28 37 15 20 1015.9 1014.7 0.0
22/06:30am 19.8 14.0 4.3 36 7.6 S 24 32 13 17 1015.4 1014.2 0.0
22/06:00am 18.7 14.6 4.5 39 6.9 SW 15 20 8 11 1014.8 1013.6 0.0
22/05:30am 19.6 14.8 4.9 38 7.2 SW 19 24 10 13 1014.4 1013.2 0.0
22/05:00am 19.3 14.4 5.0 39 7.0 WSW 20 24 11 13 1014.0 1012.7 0.0
22/04:30am 19.6 14.3 4.9 38 7.2 SW 22 28 12 15 1013.9 1012.6 0.0
22/04:00am 20.4 16.0 6.4 40 7.1 WSW 19 30 10 16 1013.8 1012.5 0.0
22/03:30am 19.5 15.2 5.2 39 7.1 W 17 20 9 11 1013.5 1012.2 0.0
22/03:00am 20.0 15.3 5.3 38 7.3 W 19 22 10 12 1013.5 1012.2 0.0
22/02:30am 19.0 15.4 3.2 35 7.5 WNW 11 13 6 7 1013.5 1012.2 0.0
22/02:00am 18.7 14.5 1.7 32 7.8 WNW 13 13 7 7 1013.4 1012.1 0.0
22/01:30am 19.0 15.5 1.5 31 8.0 WNW 9 13 5 7 1013.4 1012.1 0.0
22/01:00am 18.6 15.7 1.2 31 7.9 W 6 9 3 5 1013.3 1012.0 0.0
22/12:30am 18.5 15.1 1.9 33 7.6 NW 9 11 5 6 1013.4 1012.1 0.0
22/12:00am 18.6 15.2 1.6 32 7.8 WNW 9 9 5 5 1013.4 1012.1 0.0
 
Date/Time
WST
Temp
°C
App
Temp
°C
Dew
Point
°C
Rel
Hum
%
Delta-T
°C
Wind Press
QNH
hPa
Press
MSL
hPa
Rain since
9am
mm
Dir  Spd
km/h
Gust
km/h
Spd
kts
Gust
kts
21/11:30pm 17.4 14.7 2.6 37 6.9 NW 6 7 3 4 1013.3 1012.0 0.0
21/11:00pm 17.0 13.8 3.0 39 6.5 N 9 13 5 7 1013.4 1012.1 0.0
21/10:30pm 18.4 15.6 3.1 36 7.2 W 7 7 4 4 1013.5 1012.2 0.0
21/10:00pm 18.5 15.8 2.4 34 7.5 WSW 6 7 3 4 1013.6 1012.3 0.0
21/09:30pm 18.6 15.9 2.9 35 7.4 WSW 6 9 3 5 1013.6 1012.3 0.0
21/09:00pm 18.8 17.4 3.4 36 7.3 CALM 0 0 0 0 1013.6 1012.3 0.0
21/08:30pm 21.2 19.6 2.5 29 8.9 CALM 0 6 0 3 1013.6 1012.3 0.0
21/08:00pm 23.0 20.9 1.4 24 10.2 W 2 7 1 4 1013.4 1012.1 0.0
21/07:30pm 23.8 19.6 1.4 23 10.6 W 13 15 7 8 1013.0 1011.8 0.0
21/07:00pm 24.2 20.3 1.2 22 10.9 W 11 13 6 7 1012.6 1011.4 0.0
21/06:30pm 25.2 20.7 2.0 22 11.3 W 15 17 8 9 1012.2 1011.0 0.0
21/06:00pm 25.6 21.5 2.3 22 11.4 W 13 15 7 8 1011.8 1010.6 0.0
21/05:30pm 26.4 22.6 1.7 20 12.0 W 11 15 6 8 1011.4 1010.2 0.0
21/05:00pm 28.2 24.0 1.7 18 13.1 WNW 13 17 7 9 1011.1 1009.9 0.0
21/04:30pm 28.9 24.2 0.6 16 13.7 W 15 17 8 9 1010.9 1009.6 0.0
21/04:00pm 29.4 24.6 0.1 15 14.2 NW 15 24 8 13 1010.7 1009.4 0.0
21/03:30pm 29.3 24.8 0.0 15 14.1 NNW 13 20 7 11 1010.6 1009.3 0.0
21/03:00pm 29.8 25.5 -1.5 13 14.8 NW 11 20 6 11 1010.4 1009.1 0.0
21/02:30pm 29.4 24.6 0.1 15 14.1 NW 15 22 8 12 1010.5 1009.2 0.0
21/02:00pm 29.0 24.1 -0.2 15 14.0 WNW 15 24 8 13 1010.4 1009.1 0.0
21/01:30pm 29.0 24.5 -0.2 15 14.0 NW 13 20 7 11 1010.5 1009.2 0.0
21/01:00pm 28.9 24.8 -0.3 15 14.0 NNW 11 19 6 10 1010.8 1009.5 0.0
21/12:30pm 28.9 24.4 -0.3 15 14.0 NW 13 20 7 11 1011.2 1010.0 0.0

Other Formats:

Comma delimited format used in spreadsheet applications
http://www.bom.gov.au/fwo/IDW60801/IDW60801.94319.axf

JavaScript Object Notation format (JSON) in row-major order
http://www.bom.gov.au/fwo/IDW60801/IDW60801.94319.json